This is the latest recevied weather packets stored in our database for station/object W1BKW. If no packets are shown the sender has not sent any weather packets the latest 1 day(s).
| Time | Temp. | Humidity | Pressure | Rain* | Wind** | Luminosity | Snow |
|---|---|---|---|---|---|---|---|
| 1777981706 | 13.33° C | 68% | 1006 hPa | 0 mm | 1.34 m/s, 204° | 111 W/m² | - |
| 1777980801 | 13.33° C | 69% | 1005.8 hPa | 0 mm | 3.13 m/s, 222° | 60 W/m² | - |
| 1777979901 | 13.33° C | 70% | 1005.7 hPa | 0 mm | 1.34 m/s, 236° | 59 W/m² | - |
| 1777978997 | 12.22° C | 74% | 1005.9 hPa | 0 mm | 1.79 m/s, 255° | 39 W/m² | - |
| 1777978097 | 12.78° C | 70% | 1005.7 hPa | 0 mm | 2.68 m/s, 245° | 22 W/m² | - |
| 1777977194 | 12.78° C | 70% | 1005.5 hPa | 0 mm | 0.89 m/s, 195° | 19 W/m² | - |
| 1777976295 | 12.22° C | 72% | 1005.9 hPa | 0 mm | 1.79 m/s, 231° | 17 W/m² | - |
| 1777975389 | 10.56° C | 79% | 1005.9 hPa | 0 mm | 0.45 m/s, 71° | 11 W/m² | - |
| 1777974489 | 10.56° C | 77% | 1005.3 hPa | 0 mm | 0.45 m/s, 216° | 6 W/m² | - |
| 1777973586 | 10° C | 82% | 1005.7 hPa | 0 mm | 0.45 m/s, 61° | 0 W/m² | - |
| 1777972684 | 9.44° C | 82% | 1005.8 hPa | 0 mm | 0 m/s | 0 W/m² | - |
| 1777971783 | 9.44° C | 85% | 1005.7 hPa | 0 mm | 0.89 m/s, 59° | 0 W/m² | - |
| 1777970881 | 9.44° C | 84% | 1006 hPa | 0 mm | 0.45 m/s, 134° | 0 W/m² | - |
| 1777969979 | 10.56° C | 81% | 1005.9 hPa | 0 mm | 1.79 m/s, 279° | 0 W/m² | - |
| 1777969074 | 10° C | 79% | 1006.1 hPa | 0 mm | 0 m/s | 0 W/m² | - |
| 1777968170 | 9.44° C | 83% | 1006 hPa | 0 mm | 0.45 m/s, 135° | 0 W/m² | - |
| 1777967266 | 10° C | 83% | 1006.1 hPa | 0 mm | 0.89 m/s, 279° | 0 W/m² | - |
| 1777966364 | 11.11° C | 73% | 1006 hPa | 0 mm | 0.45 m/s, 104° | 0 W/m² | - |
| 1777965465 | 12.22° C | 69% | 1006.2 hPa | 0 mm | 0 m/s | 0 W/m² | - |
| 1777964561 | 11.67° C | 72% | 1006 hPa | 0 mm | 0 m/s | 0 W/m² | - |
| 1777963657 | 12.78° C | 66% | 1006.1 hPa | 0 mm | 2.24 m/s, 224° | 0 W/m² | - |
| 1777962754 | 12.78° C | 67% | 1006.1 hPa | 0 mm | 0 m/s | 0 W/m² | - |
| 1777961851 | 9.44° C | 81% | 1006 hPa | 0 mm | 0.45 m/s, 161° | 0 W/m² | - |
* Rain latest hour (hover to see other rain measurements)
** Current wind speed in m/s (hover to see current wind gust speed)